createdAt,value
2022-10-08T00:01:28.947Z,3.35
2022-10-08T00:03:57.774Z,2.65
2022-10-08T00:06:28.209Z,3.22
2022-10-08T00:08:57.899Z,2.40
2022-10-08T00:11:28.533Z,3.00
2022-10-08T00:13:58.746Z,2.28
2022-10-08T00:16:28.871Z,3.17
2022-10-08T00:18:59.304Z,2.28
2022-10-08T00:21:29.874Z,2.45
2022-10-08T00:23:59.052Z,2.85
2022-10-08T00:26:29.616Z,2.72
2022-10-08T00:29:00.436Z,2.63
2022-10-08T00:31:32.347Z,2.97
2022-10-08T00:34:04.329Z,2.70
2022-10-08T00:36:33.932Z,2.95
2022-10-08T00:39:04.926Z,2.63
2022-10-08T00:41:35.014Z,2.40
2022-10-08T00:44:20.509Z,2.50
2022-10-08T00:46:50.867Z,2.40
2022-10-08T00:49:21.839Z,3.28
2022-10-08T00:51:54.092Z,2.20
2022-10-08T00:54:23.811Z,2.15
2022-10-08T00:56:54.950Z,2.58
2022-10-08T00:59:25.096Z,2.65
2022-10-08T01:01:54.091Z,2.58
2022-10-08T01:04:22.178Z,2.25
2022-10-08T01:06:57.867Z,2.63
2022-10-08T01:09:31.592Z,2.53
2022-10-08T01:12:09.625Z,2.83
2022-10-08T01:14:46.459Z,2.95
2022-10-08T01:17:25.043Z,2.65
2022-10-08T01:20:16.862Z,2.38
2022-10-08T01:23:04.177Z,2.38
2022-10-08T01:25:37.888Z,2.47
2022-10-08T01:28:13.356Z,2.72
2022-10-08T01:33:15.950Z,2.28
2022-10-08T01:35:50.658Z,2.85
2022-10-08T01:38:23.209Z,1.60
2022-10-08T01:40:54.775Z,3.10
2022-10-08T01:43:26.137Z,2.58
2022-10-08T01:45:58.803Z,2.50
2022-10-08T01:48:30.957Z,2.22
2022-10-08T01:51:04.211Z,2.22
2022-10-08T01:53:37.525Z,2.35
2022-10-08T01:56:08.851Z,2.10
2022-10-08T01:58:46.162Z,2.55
2022-10-08T02:01:28.757Z,2.35
2022-10-08T02:04:14.472Z,2.63
2022-10-08T02:06:49.133Z,2.60
2022-10-08T02:09:17.107Z,2.33
2022-10-08T02:11:45.196Z,2.10
2022-10-08T02:14:14.664Z,2.13
2022-10-08T02:16:51.497Z,3.17
2022-10-08T02:19:29.948Z,2.70
2022-10-08T02:22:00.792Z,2.63
2022-10-08T02:24:34.491Z,2.58
2022-10-08T02:27:05.635Z,2.80
2022-10-08T02:29:38.751Z,2.67
2022-10-08T02:32:11.261Z,2.95
2022-10-08T02:34:43.224Z,2.50
2022-10-08T02:37:15.422Z,2.40
2022-10-08T02:39:48.769Z,2.10
2022-10-08T02:42:22.639Z,2.55
2022-10-08T02:44:55.817Z,2.95
2022-10-08T02:47:27.514Z,2.20
2022-10-08T02:50:01.569Z,2.10
2022-10-08T02:52:36.863Z,2.13
2022-10-08T02:55:12.613Z,2.60
2022-10-08T02:57:45.380Z,2.50
2022-10-08T03:00:15.150Z,2.90
2022-10-08T03:02:50.711Z,2.35
2022-10-08T03:05:21.096Z,2.85
2022-10-08T03:07:51.649Z,2.42
2022-10-08T03:10:19.938Z,3.08
2022-10-08T03:12:48.796Z,2.75
2022-10-08T03:15:18.488Z,2.40
2022-10-08T03:17:48.292Z,2.25
2022-10-08T03:20:16.393Z,2.22
2022-10-08T03:22:44.879Z,2.88
2022-10-08T03:25:13.043Z,2.80
2022-10-08T03:27:41.012Z,3.08
2022-10-08T03:30:10.314Z,2.70
2022-10-08T03:32:39.640Z,2.40
2022-10-08T03:35:07.926Z,2.67
2022-10-08T03:37:35.924Z,3.08
2022-10-08T03:40:03.971Z,2.22
2022-10-08T03:42:31.909Z,2.50
2022-10-08T03:45:01.375Z,2.95
2022-10-08T03:47:29.312Z,2.30
2022-10-08T03:49:58.646Z,2.97
2022-10-08T03:52:26.647Z,2.83
2022-10-08T03:54:54.580Z,3.25
2022-10-08T03:57:22.543Z,2.22
2022-10-08T03:59:50.548Z,3.17
2022-10-08T04:02:18.566Z,2.38
2022-10-08T04:04:46.560Z,2.40
2022-10-08T04:07:17.097Z,3.15
2022-10-08T04:09:45.933Z,2.95
2022-10-08T04:12:13.886Z,3.47
2022-10-08T04:14:41.835Z,3.25
2022-10-08T04:17:09.779Z,2.38
2022-10-08T04:19:38.403Z,2.78
2022-10-08T04:22:08.556Z,2.92
2022-10-08T04:24:38.752Z,2.88
2022-10-08T04:27:08.809Z,3.03
2022-10-08T04:29:36.773Z,2.53
2022-10-08T04:32:04.732Z,2.90
2022-10-08T04:34:32.671Z,2.92
2022-10-08T04:37:00.635Z,2.70
2022-10-08T04:39:28.603Z,2.90
2022-10-08T04:41:57.929Z,2.78
2022-10-08T04:44:25.978Z,2.95
2022-10-08T04:46:53.932Z,2.80
2022-10-08T04:49:21.854Z,2.35
2022-10-08T04:51:49.796Z,3.13
2022-10-08T04:54:17.772Z,3.08
2022-10-08T04:56:45.736Z,2.30
2022-10-08T04:59:15.047Z,3.30
2022-10-08T05:01:43.048Z,2.42
2022-10-08T05:04:11.110Z,2.35
2022-10-08T05:06:39.447Z,3.50
2022-10-08T05:09:07.419Z,4.03
2022-10-08T05:11:35.414Z,2.42
2022-10-08T05:14:03.607Z,3.47
2022-10-08T05:16:33.420Z,3.00
2022-10-08T05:19:01.616Z,3.25
2022-10-08T05:21:31.187Z,3.38
2022-10-08T05:24:01.627Z,3.53
2022-10-08T05:26:58.156Z,3.17
2022-10-08T05:29:19.696Z,3.10
2022-10-08T05:31:49.047Z,3.47
2022-10-08T05:34:17.242Z,3.17
2022-10-08T05:36:45.222Z,3.78
2022-10-08T05:39:13.168Z,1.92
2022-10-08T05:41:41.816Z,2.22
2022-10-08T05:44:11.529Z,3.50
2022-10-08T05:46:39.806Z,2.63
2022-10-08T05:49:14.157Z,2.80
2022-10-08T05:51:42.153Z,3.67
2022-10-08T05:54:10.115Z,2.50
2022-10-08T05:56:38.075Z,2.78
2022-10-08T05:59:06.186Z,2.97
2022-10-08T06:01:34.985Z,2.47
2022-10-08T06:04:08.835Z,3.60
2022-10-08T06:06:38.955Z,3.30
2022-10-08T06:09:07.648Z,2.35
2022-10-08T06:11:36.897Z,3.70
2022-10-08T06:14:07.092Z,3.00
2022-10-08T06:16:35.818Z,2.83
2022-10-08T06:19:04.178Z,3.78
2022-10-08T06:21:32.631Z,3.28
2022-10-08T06:24:03.977Z,3.38
2022-10-08T06:26:35.986Z,3.45
2022-10-08T06:29:05.637Z,3.22
2022-10-08T06:31:34.592Z,2.40
2022-10-08T06:34:04.321Z,2.65
2022-10-08T06:36:34.077Z,3.28
2022-10-08T06:39:06.753Z,3.72
2022-10-08T06:41:35.223Z,3.53
2022-10-08T06:44:04.131Z,3.30
2022-10-08T06:46:32.846Z,4.38
2022-10-08T06:49:01.843Z,3.42
2022-10-08T06:51:30.750Z,3.45
2022-10-08T06:54:06.049Z,4.28
2022-10-08T06:56:37.444Z,4.63
2022-10-08T06:59:07.028Z,3.80
2022-10-08T07:01:35.917Z,3.55
2022-10-08T07:04:05.701Z,2.97
2022-10-08T07:06:33.945Z,3.53
2022-10-08T07:09:02.684Z,4.00
2022-10-08T07:11:32.128Z,3.80
2022-10-08T07:14:01.846Z,3.28
2022-10-08T07:16:30.068Z,3.33
2022-10-08T07:18:59.394Z,3.95
2022-10-08T07:21:28.910Z,3.65
2022-10-08T07:23:59.324Z,3.72
2022-10-08T07:26:29.432Z,3.40
2022-10-08T07:28:59.020Z,3.47
2022-10-08T07:31:29.773Z,3.47
2022-10-08T07:33:58.228Z,3.22
2022-10-08T07:36:27.269Z,3.00
2022-10-08T07:38:56.292Z,3.05
2022-10-08T07:41:24.626Z,3.28
2022-10-08T07:43:53.816Z,3.10
2022-10-08T07:46:22.584Z,3.50
2022-10-08T07:48:51.894Z,3.15
2022-10-08T07:51:21.076Z,2.40
2022-10-08T07:53:49.759Z,3.08
2022-10-08T07:56:20.865Z,3.67
2022-10-08T07:58:49.436Z,3.10
2022-10-08T08:01:22.083Z,2.53
2022-10-08T08:03:58.426Z,3.28
2022-10-08T08:06:26.872Z,2.88
2022-10-08T08:08:55.690Z,3.28
2022-10-08T08:11:25.250Z,3.60
2022-10-08T08:13:53.686Z,2.42
2022-10-08T08:16:25.495Z,2.78
2022-10-08T08:18:57.156Z,3.00
2022-10-08T08:21:27.246Z,3.15
2022-10-08T08:23:56.971Z,2.78
2022-10-08T08:26:28.239Z,3.35
2022-10-08T08:28:57.233Z,3.67
2022-10-08T08:31:27.139Z,2.50
2022-10-08T08:33:58.117Z,2.58
2022-10-08T08:36:28.179Z,2.50
2022-10-08T08:38:57.001Z,3.30
2022-10-08T08:41:45.182Z,2.42
2022-10-08T08:44:19.707Z,2.40
2022-10-08T08:46:52.834Z,2.55
2022-10-08T08:49:28.283Z,1.60
2022-10-08T08:54:25.168Z,2.17
2022-10-08T08:56:54.626Z,2.47
2022-10-08T08:59:29.124Z,2.63
2022-10-08T09:02:00.856Z,1.80
2022-10-08T09:04:44.952Z,1.92
2022-10-08T09:07:17.751Z,2.20
2022-10-08T09:09:49.342Z,2.15
2022-10-08T09:12:20.997Z,1.83
2022-10-08T09:14:51.835Z,1.88
2022-10-08T09:17:21.733Z,1.73
2022-10-08T09:19:51.913Z,1.33
2022-10-08T09:22:22.461Z,1.60
2022-10-08T09:24:52.265Z,1.85
2022-10-08T09:27:20.564Z,1.80
2022-10-08T09:29:50.677Z,1.80
2022-10-08T09:32:20.123Z,1.85
2022-10-08T09:34:49.421Z,2.03
2022-10-08T09:37:26.079Z,1.98
2022-10-08T09:40:20.270Z,1.20
2022-10-08T09:43:06.133Z,1.80
2022-10-08T09:45:35.382Z,1.98
2022-10-08T09:48:27.716Z,1.95
2022-10-08T09:51:00.135Z,1.33
2022-10-08T09:53:35.500Z,1.25
2022-10-08T09:56:04.933Z,0.82
2022-10-08T09:58:35.478Z,1.50
2022-10-08T10:01:13.612Z,1.73
2022-10-08T10:03:42.311Z,1.50
2022-10-08T10:06:10.636Z,1.60
2022-10-08T10:09:01.105Z,1.60
2022-10-08T10:11:35.352Z,1.52
2022-10-08T10:14:06.914Z,1.88
2022-10-08T10:16:37.651Z,1.52
2022-10-08T10:19:07.432Z,1.20
2022-10-08T10:21:39.201Z,1.60
2022-10-08T10:24:14.831Z,1.85
2022-10-08T10:26:44.338Z,1.58
2022-10-08T10:29:14.980Z,1.55
2022-10-08T10:31:45.972Z,1.40
2022-10-08T10:34:17.213Z,1.38
2022-10-08T10:36:47.449Z,1.20
2022-10-08T10:39:19.494Z,1.10
2022-10-08T10:41:50.002Z,1.00
2022-10-08T10:44:23.460Z,0.95
2022-10-08T10:46:52.971Z,1.20
2022-10-08T10:49:22.907Z,1.00
2022-10-08T10:52:04.563Z,1.05
2022-10-08T10:54:43.865Z,1.58
2022-10-08T10:57:15.829Z,1.27
2022-10-08T10:59:47.285Z,1.58
2022-10-08T11:02:20.954Z,1.20
2022-10-08T11:04:57.139Z,1.30
2022-10-08T11:07:38.418Z,0.98
2022-10-08T11:10:10.670Z,1.55
2022-10-08T11:12:43.163Z,0.75
2022-10-08T11:15:19.845Z,1.40
2022-10-08T11:18:03.242Z,1.63
2022-10-08T11:20:40.829Z,1.20
2022-10-08T11:23:14.645Z,0.82
2022-10-08T11:26:14.920Z,1.40
2022-10-08T11:28:45.912Z,1.13
2022-10-08T11:31:24.792Z,1.20
2022-10-08T11:33:58.990Z,1.08
2022-10-08T11:36:34.174Z,1.00
2022-10-08T11:39:06.164Z,0.80
2022-10-08T11:41:40.310Z,1.20
2022-10-08T11:44:10.991Z,1.30
2022-10-08T11:46:39.379Z,1.58
2022-10-08T11:49:22.933Z,1.30
2022-10-08T11:51:52.103Z,1.55
2022-10-08T11:54:26.587Z,0.80
2022-10-08T11:57:11.880Z,1.85
2022-10-08T11:59:42.828Z,0.82
2022-10-08T12:02:23.692Z,1.33
2022-10-08T12:04:53.489Z,1.15
2022-10-08T12:07:27.911Z,1.10
2022-10-08T12:10:20.237Z,1.20
2022-10-08T12:13:05.721Z,1.08
2022-10-08T12:15:54.977Z,1.40
2022-10-08T12:18:53.690Z,1.08
2022-10-08T12:21:55.193Z,1.42
2022-10-08T12:24:59.025Z,1.40
2022-10-08T12:27:30.652Z,1.10
2022-10-08T12:30:00.348Z,2.15
2022-10-08T12:32:30.713Z,0.88
2022-10-08T12:34:58.999Z,1.65
2022-10-08T12:37:34.617Z,1.30
2022-10-08T12:40:04.919Z,1.25
2022-10-08T12:42:37.268Z,1.30
2022-10-08T12:45:08.537Z,1.10
2022-10-08T12:47:43.629Z,1.00
2022-10-08T12:50:39.590Z,1.40
2022-10-08T12:53:09.369Z,1.27
2022-10-08T12:55:45.438Z,1.15
2022-10-08T12:58:18.960Z,1.17
2022-10-08T13:00:53.602Z,1.05
2022-10-08T13:03:23.260Z,1.25
2022-10-08T13:05:53.419Z,1.10
2022-10-08T13:08:35.211Z,0.98
2022-10-08T13:11:05.652Z,0.52
2022-10-08T13:13:52.025Z,1.30
2022-10-08T13:16:22.515Z,1.75
2022-10-08T13:18:53.987Z,1.30
2022-10-08T13:21:36.633Z,0.98
2022-10-08T13:24:06.161Z,1.00
2022-10-08T13:26:45.985Z,1.42
2022-10-08T13:29:27.289Z,1.23
2022-10-08T13:31:57.685Z,1.20
2022-10-08T13:34:29.827Z,1.00
2022-10-08T13:36:59.514Z,1.00
2022-10-08T13:39:30.791Z,0.90
2022-10-08T13:42:01.961Z,1.38
2022-10-08T13:44:30.540Z,0.85
2022-10-08T13:47:03.587Z,1.15
2022-10-08T13:49:34.133Z,1.13
2022-10-08T13:52:02.929Z,1.30
2022-10-08T13:54:33.427Z,1.50
2022-10-08T13:57:01.897Z,0.93
2022-10-08T13:59:30.976Z,1.23
2022-10-08T14:01:59.237Z,1.00
2022-10-08T14:04:30.017Z,1.10
2022-10-08T14:07:00.098Z,1.17
2022-10-08T14:09:30.243Z,1.60
2022-10-08T14:12:01.930Z,1.15
2022-10-08T14:14:29.914Z,0.90
2022-10-08T14:16:57.964Z,1.13
2022-10-08T14:19:25.996Z,1.08
2022-10-08T14:21:56.483Z,1.10
2022-10-08T14:24:25.806Z,1.40
2022-10-08T14:26:56.561Z,1.58
2022-10-08T14:29:24.613Z,1.52
2022-10-08T14:31:52.643Z,1.30
2022-10-08T14:34:20.643Z,1.52
2022-10-08T14:36:50.139Z,1.40
2022-10-08T14:39:18.098Z,1.20
2022-10-08T14:41:47.467Z,1.30
2022-10-08T14:44:16.772Z,1.20
2022-10-08T14:46:44.972Z,1.60
2022-10-08T14:49:12.939Z,1.52
2022-10-08T14:51:40.896Z,1.23
2022-10-08T14:54:10.172Z,0.90
2022-10-08T14:56:38.658Z,1.30
2022-10-08T14:59:08.178Z,1.38
2022-10-08T15:01:36.696Z,1.20
2022-10-08T15:04:05.024Z,1.40
2022-10-08T15:06:33.089Z,1.40
2022-10-08T15:09:01.448Z,1.70
2022-10-08T15:11:29.725Z,1.30
2022-10-08T15:13:59.228Z,1.48
2022-10-08T15:16:28.767Z,1.40
2022-10-08T15:18:57.063Z,1.30
2022-10-08T15:21:26.470Z,1.30
2022-10-08T15:23:56.641Z,1.60
2022-10-08T15:26:24.711Z,1.50
2022-10-08T15:28:53.655Z,1.30
2022-10-08T15:31:23.804Z,1.70
2022-10-08T15:33:56.123Z,1.77
2022-10-08T15:36:25.927Z,1.55
2022-10-08T15:38:58.135Z,2.35
2022-10-08T15:41:26.725Z,1.25
2022-10-08T15:43:57.464Z,1.55
2022-10-08T15:46:28.937Z,1.60
2022-10-08T15:48:58.425Z,1.40
2022-10-08T15:51:26.717Z,1.40
2022-10-08T15:53:54.721Z,1.42
2022-10-08T15:56:22.663Z,1.40
2022-10-08T15:58:51.651Z,1.30
2022-10-08T16:01:22.042Z,1.30
2022-10-08T16:03:52.103Z,1.50
2022-10-08T16:06:24.080Z,1.73
2022-10-08T16:08:52.557Z,1.30
2022-10-08T16:11:22.760Z,1.80
2022-10-08T16:13:51.941Z,1.38
2022-10-08T16:16:20.481Z,1.80
2022-10-08T16:18:51.086Z,1.23
2022-10-08T16:21:21.186Z,1.83
2022-10-08T16:23:50.545Z,1.60
2022-10-08T16:26:21.299Z,1.55
2022-10-08T16:28:50.971Z,1.30
2022-10-08T16:31:19.930Z,1.83
2022-10-08T16:33:48.694Z,1.63
2022-10-08T16:36:16.656Z,1.50
2022-10-08T16:38:44.672Z,1.75
2022-10-08T16:41:16.989Z,2.17
2022-10-08T16:43:47.261Z,2.05
2022-10-08T16:46:17.234Z,1.70
2022-10-08T16:48:46.019Z,1.45
2022-10-08T16:51:13.967Z,2.00
2022-10-08T16:53:41.982Z,2.28
2022-10-08T16:56:09.938Z,2.10
2022-10-08T16:58:39.240Z,2.13
2022-10-08T17:01:08.652Z,1.67
2022-10-08T17:03:36.981Z,1.70
2022-10-08T17:06:05.616Z,1.83
2022-10-08T17:08:33.691Z,2.08
2022-10-08T17:11:05.439Z,4.93
2022-10-08T17:13:34.041Z,3.22
2022-10-08T17:16:07.356Z,3.15
2022-10-08T17:18:35.766Z,6.00
2022-10-08T17:21:04.429Z,4.90
2022-10-08T17:23:36.767Z,4.75
2022-10-08T17:26:07.586Z,6.15
2022-10-08T17:28:38.470Z,6.50
2022-10-08T17:31:08.775Z,7.03
2022-10-08T17:33:37.130Z,7.93
2022-10-08T17:36:06.803Z,8.18
2022-10-08T17:38:35.585Z,7.03
2022-10-08T17:41:11.414Z,7.03
2022-10-08T17:43:39.413Z,11.20
2022-10-08T17:46:09.822Z,8.15
2022-10-08T17:48:38.299Z,6.95
2022-10-08T17:51:07.629Z,6.60
2022-10-08T17:53:35.597Z,6.53
2022-10-08T17:56:04.796Z,4.88
2022-10-08T17:58:32.767Z,4.70
2022-10-08T18:01:06.846Z,3.97
2022-10-08T18:03:37.106Z,3.97
2022-10-08T18:06:05.872Z,3.65
2022-10-08T18:08:34.326Z,3.97
2022-10-08T18:11:03.537Z,3.78
2022-10-08T18:13:31.859Z,4.00
2022-10-08T18:16:04.686Z,4.70
2022-10-08T18:18:33.178Z,5.35
2022-10-08T18:21:03.210Z,4.60
2022-10-08T18:23:31.651Z,4.88
2022-10-08T18:26:08.997Z,3.97
2022-10-08T18:28:39.437Z,4.40
2022-10-08T18:31:08.443Z,4.50
2022-10-08T18:33:38.014Z,3.75
2022-10-08T18:36:12.185Z,4.05
2022-10-08T18:38:40.452Z,3.58
2022-10-08T18:41:13.339Z,3.60
2022-10-08T18:43:41.590Z,3.20
2022-10-08T18:46:09.674Z,3.42
2022-10-08T18:48:38.202Z,2.88
2022-10-08T18:51:10.419Z,3.88
2022-10-08T18:53:41.469Z,3.75
2022-10-08T18:56:11.697Z,3.88
2022-10-08T18:58:39.978Z,4.63
2022-10-08T19:01:16.015Z,5.05
2022-10-08T19:03:46.342Z,4.70
2022-10-08T19:06:14.430Z,7.05
2022-10-08T19:08:43.832Z,8.38
2022-10-08T19:11:13.517Z,7.07
2022-10-08T19:13:41.589Z,14.52
2022-10-08T19:16:13.615Z,19.02
2022-10-08T19:18:42.849Z,13.95
2022-10-08T19:21:11.947Z,13.10
2022-10-08T19:23:40.732Z,12.68
2022-10-08T19:26:10.206Z,9.35
2022-10-08T19:28:39.499Z,10.30
2022-10-08T19:31:14.899Z,10.10
2022-10-08T19:33:42.978Z,9.30
2022-10-08T19:36:11.345Z,11.55
2022-10-08T19:38:39.332Z,11.63
2022-10-08T19:41:12.522Z,9.25
2022-10-08T19:43:43.797Z,9.63
2022-10-08T19:46:12.190Z,9.00
2022-10-08T19:48:40.692Z,8.23
2022-10-08T19:51:12.069Z,7.07
2022-10-08T19:53:40.542Z,7.50
2022-10-08T19:56:09.913Z,9.18
2022-10-08T19:58:41.408Z,8.80
2022-10-08T20:01:13.069Z,9.30
2022-10-08T20:03:41.097Z,8.15
2022-10-08T20:06:11.164Z,8.73
2022-10-08T20:08:39.451Z,7.75
2022-10-08T20:11:08.261Z,7.40
2022-10-08T20:13:36.925Z,9.57
2022-10-08T20:16:07.365Z,9.13
2022-10-08T20:18:35.870Z,10.07
2022-10-08T20:21:04.803Z,9.32
2022-10-08T20:23:33.116Z,8.13
2022-10-08T20:26:10.295Z,7.28
2022-10-08T20:28:38.452Z,7.50
2022-10-08T20:31:13.021Z,7.25
2022-10-08T20:33:41.714Z,7.22
2022-10-08T20:36:10.635Z,7.55
2022-10-08T20:38:38.962Z,6.95
2022-10-08T20:41:07.535Z,7.22
2022-10-08T20:43:37.600Z,7.43
2022-10-08T20:46:08.234Z,8.10
2022-10-08T20:48:38.792Z,6.00
2022-10-08T20:51:08.657Z,7.47
2022-10-08T20:53:36.877Z,6.60
2022-10-08T20:56:05.873Z,6.65
2022-10-08T20:58:34.803Z,6.88
2022-10-08T21:01:07.188Z,6.28
2022-10-08T21:03:37.220Z,6.13
2022-10-08T21:06:06.333Z,8.45
2022-10-08T21:08:36.985Z,8.25
2022-10-08T21:11:08.270Z,7.25
2022-10-08T21:13:37.133Z,7.22
2022-10-08T21:16:06.818Z,7.25
2022-10-08T21:18:35.282Z,7.80
2022-10-08T21:21:05.593Z,9.90
2022-10-08T21:23:33.744Z,8.50
2022-10-08T21:26:10.068Z,8.00
2022-10-08T21:28:38.071Z,8.65
2022-10-08T21:31:06.489Z,8.38
2022-10-08T21:33:36.997Z,9.52
2022-10-08T21:36:08.001Z,12.32
2022-10-08T21:38:36.011Z,13.07
2022-10-08T21:41:11.717Z,10.32
2022-10-08T21:43:40.233Z,10.70
2022-10-08T21:46:09.307Z,11.00
2022-10-08T21:48:38.038Z,12.88
2022-10-08T21:51:08.593Z,14.57
2022-10-08T21:53:38.610Z,13.57
2022-10-08T21:56:08.384Z,12.98
2022-10-08T21:58:39.077Z,10.75
2022-10-08T22:01:07.949Z,11.48
2022-10-08T22:03:36.179Z,10.40
2022-10-08T22:06:05.334Z,10.35
2022-10-08T22:08:34.743Z,11.45
2022-10-08T22:11:05.763Z,10.68
2022-10-08T22:13:34.240Z,10.40
2022-10-08T22:16:04.944Z,9.70
2022-10-08T22:18:34.289Z,11.55
2022-10-08T22:21:03.598Z,10.45
2022-10-08T22:23:31.955Z,10.88
2022-10-08T22:26:04.499Z,9.85
2022-10-08T22:28:33.205Z,8.50
2022-10-08T22:31:01.508Z,8.35
2022-10-08T22:33:30.417Z,8.65
2022-10-08T22:36:01.863Z,8.52
2022-10-08T22:38:30.787Z,9.07
2022-10-08T22:41:04.580Z,8.98
2022-10-08T22:43:32.676Z,14.35
2022-10-08T22:46:04.019Z,10.27
2022-10-08T22:48:32.844Z,8.82
2022-10-08T22:51:02.970Z,9.05
2022-10-08T22:53:31.729Z,8.35
2022-10-08T22:56:00.101Z,8.82
2022-10-08T22:58:29.379Z,8.52
2022-10-08T23:01:01.164Z,7.68
2022-10-08T23:03:29.587Z,7.93
2022-10-08T23:06:05.443Z,7.50
2022-10-08T23:08:33.728Z,8.85
2022-10-08T23:11:03.068Z,9.57
2022-10-08T23:13:33.013Z,8.57
2022-10-08T23:16:03.209Z,8.82
2022-10-08T23:18:31.784Z,7.93
2022-10-08T23:21:02.923Z,7.93
2022-10-08T23:23:31.200Z,7.32
2022-10-08T23:26:00.971Z,6.55
2022-10-08T23:28:29.849Z,7.97
2022-10-08T23:31:07.016Z,6.57
2022-10-08T23:33:35.417Z,6.80
2022-10-08T23:36:03.340Z,6.60
2022-10-08T23:38:31.261Z,6.07
2022-10-08T23:41:02.984Z,6.00
2022-10-08T23:43:35.337Z,6.05
2022-10-08T23:46:03.501Z,5.90
2022-10-08T23:48:33.181Z,5.55
2022-10-08T23:51:01.790Z,5.75
2022-10-08T23:53:29.791Z,6.10
2022-10-08T23:55:57.978Z,5.55
2022-10-08T23:58:25.979Z,5.45
